Time;durP1;ratioP1;P1;durP2;ratioP2;P2;SDS_P1;SDS_P2;PMS_P1;PMS_P2;Temp;Humidity;BMP_temperature;BMP_pressure;BME280_temperature;BME280_humidity;BME280_pressure;Samples;Min_cycle;Max_cycle;Signal;HPM_P1;HPM_P2
2023/11/26 00:02:27;;;;;;;8.90;4.90;;;;;;;-0.54;96.97;99045.47;131026;1298;24265;-82
2023/11/26 00:05:27;;;;;;;9.00;5.40;;;;;;;-0.54;96.82;99047.55;130975;1298;22596;-84
2023/11/26 00:08:27;;;;;;;8.30;5.70;;;;;;;-0.55;96.93;99049.33;131151;1292;24307;-82
2023/11/26 00:11:28;;;;;;;10.80;6.10;;;;;;;-0.56;96.89;99055.01;131028;1297;22567;-80
2023/11/26 00:14:28;;;;;;;10.70;6.30;;;;;;;-0.56;97.16;99058.14;131005;1292;22648;-83
2023/11/26 00:17:29;;;;;;;12.90;7.30;;;;;;;-0.56;97.00;99063.70;131181;1298;22583;-81
2023/11/26 00:20:29;;;;;;;15.70;7.90;;;;;;;-0.56;97.13;99066.48;131231;1298;22620;-80
2023/11/26 00:23:30;;;;;;;11.40;7.70;;;;;;;-0.58;97.23;99067.98;131004;1301;22619;-82
2023/11/26 00:26:31;;;;;;;21.50;9.60;;;;;;;-0.58;97.24;99064.58;131186;1298;22567;-83
2023/11/26 00:29:40;;;;;;;15.10;8.40;;;;;;;-0.58;97.42;99065.73;131574;1295;23907;-82
2023/11/26 00:32:40;;;;;;;18.80;9.80;;;;;;;-0.58;97.28;99072.52;131251;1301;23204;-81
2023/11/26 00:35:41;;;;;;;17.70;10.40;;;;;;;-0.58;97.37;99075.63;131233;1291;22574;-81
2023/11/26 00:38:42;;;;;;;;;;;;;;;-0.58;97.60;99079.64;131235;1301;26529;-82
2023/11/26 00:41:44;;;;;;;19.10;11.80;;;;;;;-0.58;97.53;99087.23;131284;1295;22570;-82
2023/11/26 00:44:44;;;;;;;19.30;11.90;;;;;;;-0.56;97.47;99087.31;131333;1291;24005;-82
2023/11/26 00:47:46;;;;;;;22.20;11.70;;;;;;;-0.55;97.61;99093.08;131160;1298;22562;-81
2023/11/26 00:50:46;;;;;;;20.70;12.70;;;;;;;-0.53;97.63;99096.13;131235;1298;22659;-83
2023/11/26 00:53:50;;;;;;;18.80;13.20;;;;;;;-0.52;97.77;99102.47;131176;1293;22602;-84
2023/11/26 00:56:51;;;;;;;21.10;13.00;;;;;;;-0.53;97.73;99104.23;131283;1298;22567;-82
2023/11/26 00:59:52;;;;;;;22.60;13.40;;;;;;;-0.53;97.77;99104.97;131029;1297;22695;-80
2023/11/26 01:02:53;;;;;;;21.90;13.10;;;;;;;-0.54;97.71;99108.64;131351;1301;22814;-84
2023/11/26 01:05:54;;;;;;;21.50;13.70;;;;;;;-0.55;97.70;99110.15;131196;1289;22596;-84
2023/11/26 01:08:54;;;;;;;19.00;12.60;;;;;;;-0.55;97.53;99115.55;130608;1304;22563;-81
2023/11/26 01:11:56;;;;;;;22.40;14.10;;;;;;;-0.55;97.55;99120.08;131059;1292;23041;-81
2023/11/26 01:14:56;;;;;;;22.90;13.90;;;;;;;-0.53;97.69;99124.11;130944;1299;22734;-81
2023/11/26 01:17:57;;;;;;;22.20;13.10;;;;;;;-0.53;97.52;99126.11;131174;1297;22785;-82
2023/11/26 01:20:58;;;;;;;22.90;14.60;;;;;;;-0.52;97.74;99131.33;131132;1283;22682;-83
2023/11/26 01:23:58;;;;;;;24.80;14.90;;;;;;;-0.54;97.74;99133.89;131142;1295;22621;-80
2023/11/26 01:26:59;;;;;;;21.00;12.80;;;;;;;-0.57;97.69;99137.56;130781;1298;22686;-81
2023/11/26 01:29:59;;;;;;;25.20;16.00;;;;;;;-0.57;97.62;99139.19;130922;1298;22635;-82
2023/11/26 01:33:00;;;;;;;19.70;13.60;;;;;;;-0.58;97.90;99143.39;130802;1305;22603;-80
2023/11/26 01:36:01;;;;;;;21.60;14.60;;;;;;;-0.59;97.75;99150.30;131171;1295;22734;-81
2023/11/26 01:39:02;;;;;;;22.50;14.80;;;;;;;-0.61;97.77;99153.34;131327;1294;22675;-82
2023/11/26 01:42:02;;;;;;;25.50;13.90;;;;;;;-0.63;97.73;99154.71;131235;1301;22570;-81
2023/11/26 01:45:03;;;;;;;20.40;14.30;;;;;;;-0.65;97.70;99157.83;131211;1292;22585;-82
2023/11/26 01:48:04;;;;;;;24.70;14.10;;;;;;;-0.69;97.78;99168.59;131428;1300;22670;-83
2023/11/26 01:51:09;;;;;;;17.80;13.10;;;;;;;-0.73;97.78;99170.64;131306;1299;25112;-81
2023/11/26 01:54:10;;;;;;;20.20;13.60;;;;;;;-0.76;97.78;99172.27;131108;1299;23292;-82
2023/11/26 01:57:14;;;;;;;19.00;13.60;;;;;;;-0.80;97.77;99173.59;131052;1293;22584;-81
2023/11/26 02:00:16;;;;;;;21.10;14.20;;;;;;;-0.83;97.98;99176.91;131254;1301;22531;-82
2023/11/26 02:03:17;;;;;;;24.60;15.30;;;;;;;-0.85;98.14;99178.48;131189;1301;22602;-86
2023/11/26 02:06:18;;;;;;;21.00;13.10;;;;;;;-0.88;98.07;99178.02;131192;1299;22584;-84
2023/11/26 02:09:18;;;;;;;15.10;10.40;;;;;;;-0.92;97.95;99182.83;130995;1293;22570;-83
2023/11/26 02:12:19;;;;;;;13.50;8.80;;;;;;;-0.98;97.80;99178.56;131286;1301;22583;-79
2023/11/26 02:15:20;;;;;;;11.80;7.60;;;;;;;-1.03;97.41;99180.70;131091;1299;180585;-82
2023/11/26 02:18:21;;;;;;;13.10;7.30;;;;;;;-1.08;97.48;99186.31;131127;1292;22642;-82
2023/11/26 02:21:21;;;;;;;7.40;5.30;;;;;;;-1.12;97.23;99186.73;130861;1301;22672;-84
2023/11/26 02:24:26;;;;;;;9.00;5.00;;;;;;;-1.17;96.99;99187.48;131071;1301;22612;-82
2023/11/26 02:27:27;;;;;;;8.00;5.10;;;;;;;-1.20;96.87;99190.18;131137;1302;22628;-85
2023/11/26 02:30:27;;;;;;;6.00;4.40;;;;;;;-1.23;96.69;99191.39;131243;1291;22582;-80
2023/11/26 02:33:28;;;;;;;;;;;;;;;-1.23;96.75;99191.09;131174;1298;22612;-83
2023/11/26 02:36:28;;;;;;;8.00;4.20;;;;;;;-1.24;96.82;99197.06;131148;1301;22631;-84
2023/11/26 02:39:29;;;;;;;6.10;4.20;;;;;;;-1.25;96.33;99199.71;131284;1294;24291;-84
2023/11/26 02:42:29;;;;;;;11.30;5.40;;;;;;;-1.25;96.31;99205.98;131161;1301;22608;-85
2023/11/26 02:45:30;;;;;;;6.90;5.30;;;;;;;-1.24;96.30;99211.79;131145;1299;24501;-84
2023/11/26 02:48:30;;;;;;;6.60;4.50;;;;;;;-1.23;96.35;99214.84;131061;1292;22598;-84
2023/11/26 02:51:32;;;;;;;9.00;4.80;;;;;;;-1.22;96.25;99216.67;131200;1298;22575;-80
2023/11/26 02:54:33;;;;;;;6.30;4.80;;;;;;;-1.24;96.12;99219.94;131279;1290;23331;-84
2023/11/26 02:57:34;;;;;;;10.70;5.60;;;;;;;-1.25;96.07;99226.11;131107;1301;22592;-84
2023/11/26 03:00:36;;;;;;;7.40;5.50;;;;;;;-1.27;96.38;99229.36;131213;1298;22758;-81
2023/11/26 03:03:36;;;;;;;12.90;5.70;;;;;;;-1.27;96.38;99232.68;131104;1304;22626;-81
2023/11/26 03:06:39;;;;;;;9.70;6.00;;;;;;;-1.29;96.24;99230.41;131189;1291;22707;-84
2023/11/26 03:13:06;;;;;;;8.00;5.30;;;;;;;-1.30;96.17;99228.02;131178;1302;22608;-83
2023/11/26 03:13:12;;;;;;;9.30;6.00;;;;;;;-1.30;96.43;99230.66;131195;1291;22760;-82
2023/11/26 03:16:15;;;;;;;10.90;6.60;;;;;;;-1.31;96.36;99231.07;131155;1298;22603;-84
2023/11/26 03:19:15;;;;;;;10.70;7.10;;;;;;;-1.32;96.39;99238.74;131240;1291;23037;-79
2023/11/26 03:22:17;;;;;;;8.10;6.90;;;;;;;-1.32;96.21;99240.34;130949;1298;24310;-81
2023/11/26 03:25:18;;;;;;;9.10;6.50;;;;;;;-1.33;96.24;99237.13;131198;1300;22583;-83
2023/11/26 03:28:20;;;;;;;;;;;;;;;-1.33;96.07;99240.10;131195;1301;22693;-81
2023/11/26 03:31:22;;;;;;;;;;;;;;;-1.35;96.44;99245.06;131214;1292;22584;-81
2023/11/26 03:34:28;;;;;;;9.20;6.20;;;;;;;-1.35;96.24;99245.56;131146;1301;26574;-80
2023/11/26 03:37:29;;;;;;;8.90;6.80;;;;;;;-1.33;96.39;99259.98;131311;1295;23065;-81
2023/11/26 03:40:29;;;;;;;14.00;7.90;;;;;;;-1.32;96.52;99260.30;131216;1292;22642;-85
2023/11/26 03:43:31;;;;;;;12.80;8.20;;;;;;;-1.32;96.15;99265.66;131317;1301;22684;-82
2023/11/26 03:46:32;;;;;;;11.00;8.10;;;;;;;-1.31;96.52;99274.98;131244;1283;24244;-81
2023/11/26 03:49:33;;;;;;;10.10;6.80;;;;;;;-1.31;96.29;99271.15;131106;1298;22584;-79
2023/11/26 03:52:34;;;;;;;;;;;;;;;-1.30;96.40;99270.04;131093;1292;22571;-82
2023/11/26 03:55:35;;;;;;;9.00;6.50;;;;;;;-1.30;96.22;99271.91;131006;1298;22577;-81
2023/11/26 03:58:35;;;;;;;9.60;6.90;;;;;;;-1.29;96.12;99273.80;130958;1291;23362;-83
2023/11/26 04:01:36;;;;;;;11.90;7.00;;;;;;;-1.29;96.01;99279.55;131089;1292;22558;-83
2023/11/26 04:04:37;;;;;;;8.70;6.40;;;;;;;-1.29;96.51;99279.35;131055;1298;22560;-82
2023/11/26 04:07:38;;;;;;;13.60;8.00;;;;;;;-1.32;96.38;99287.85;131117;1283;22563;-81
2023/11/26 04:10:38;;;;;;;12.30;7.50;;;;;;;-1.32;96.39;99297.44;130788;1291;23029;-81
2023/11/26 04:13:39;;;;;;;8.80;7.00;;;;;;;-1.33;96.61;99297.83;131063;1291;24399;-80
2023/11/26 04:16:48;;;;;;;9.30;7.30;;;;;;;-1.35;96.75;99299.88;131107;1298;25452;-83
2023/11/26 04:19:51;;;;;;;9.80;7.10;;;;;;;-1.35;96.80;99304.60;131093;1298;25101;-82
2023/11/26 04:22:52;;;;;;;9.80;7.50;;;;;;;-1.33;97.05;99309.66;130956;1294;22563;-79
2023/11/26 04:25:53;;;;;;;9.10;6.70;;;;;;;-1.34;96.78;99307.11;131082;1298;22570;-82
2023/11/26 04:28:54;;;;;;;9.20;6.90;;;;;;;-1.36;96.66;99311.19;131120;1298;22599;-80
2023/11/26 04:31:54;;;;;;;10.00;7.10;;;;;;;-1.37;96.67;99314.55;131102;1282;22569;-81
2023/11/26 04:34:54;;;;;;;11.40;7.60;;;;;;;-1.36;96.73;99319.73;131132;1298;22595;-83
2023/11/26 04:37:56;;;;;;;10.80;6.60;;;;;;;-1.37;96.67;99325.88;131074;1299;23464;-82
2023/11/26 04:40:57;;;;;;;10.00;7.10;;;;;;;-1.39;96.96;99323.55;131161;1295;22567;-82
2023/11/26 04:43:57;;;;;;;9.80;6.30;;;;;;;-1.40;96.81;99328.89;131158;1298;23082;-84
2023/11/26 04:46:59;;;;;;;9.00;6.50;;;;;;;-1.38;96.83;99331.86;131170;1294;25639;-80
2023/11/26 04:50:00;;;;;;;10.20;6.70;;;;;;;-1.40;96.75;99338.89;130974;1297;23311;-80
2023/11/26 04:53:00;;;;;;;12.10;7.70;;;;;;;-1.40;97.08;99344.16;131004;1293;22574;-82
2023/11/26 04:56:01;;;;;;;12.40;8.60;;;;;;;-1.41;97.05;99349.59;130878;1288;22571;-83
2023/11/26 04:59:01;;;;;;;12.60;9.00;;;;;;;-1.43;97.34;99353.17;131049;1297;23352;-83
2023/11/26 05:02:06;;;;;;;13.60;9.00;;;;;;;-1.43;97.40;99357.54;131224;1298;22608;-86
2023/11/26 05:05:08;;;;;;;13.20;9.70;;;;;;;-1.43;97.22;99364.65;131083;1301;25827;-83
2023/11/26 05:08:10;;;;;;;13.70;9.80;;;;;;;-1.43;97.41;99369.98;131218;1291;23108;-85
2023/11/26 05:11:11;;;;;;;10.90;8.50;;;;;;;-1.44;97.18;99373.55;131042;1301;22584;-83
2023/11/26 05:14:12;;;;;;;12.40;9.90;;;;;;;-1.45;97.08;99373.84;131122;1298;22884;-83
2023/11/26 05:17:13;;;;;;;16.30;11.00;;;;;;;-1.46;97.11;99379.27;131282;1295;25376;-84
2023/11/26 05:20:14;;;;;;;14.50;10.90;;;;;;;-1.46;97.06;99382.75;131409;1298;22596;-81
2023/11/26 05:23:14;;;;;;;14.40;11.30;;;;;;;-1.45;97.08;99385.45;132116;1298;22557;-84
2023/11/26 05:26:15;;;;;;;14.20;11.70;;;;;;;-1.46;96.89;99392.95;131622;1297;22602;-83
2023/11/26 05:29:15;;;;;;;15.50;11.90;;;;;;;-1.45;96.75;99393.77;131525;1298;22599;-85
2023/11/26 05:32:16;;;;;;;16.00;11.30;;;;;;;-1.47;96.37;99400.12;131380;1295;27535;-86
2023/11/26 05:35:16;;;;;;;18.80;11.60;;;;;;;-1.47;96.33;99401.20;131410;1292;24756;-84
2023/11/26 05:38:17;;;;;;;18.30;11.80;;;;;;;-1.50;95.86;99395.14;131739;1298;25123;-83
2023/11/26 05:41:18;;;;;;;15.90;11.00;;;;;;;-1.53;95.59;99401.64;131280;1298;22706;-82
2023/11/26 05:44:18;;;;;;;17.50;11.20;;;;;;;-1.56;95.43;99408.09;131610;1299;25511;-81
2023/11/26 05:47:19;;;;;;;17.60;13.10;;;;;;;-1.60;95.26;99412.11;131557;1298;22750;-86
2023/11/26 05:50:20;;;;;;;22.90;12.60;;;;;;;-1.62;95.33;99415.61;131440;1298;23574;-82
2023/11/26 05:53:20;;;;;;;17.30;12.60;;;;;;;-1.65;95.43;99414.73;131462;1298;23940;-81
2023/11/26 05:56:23;;;;;;;18.60;12.60;;;;;;;-1.66;95.32;99415.19;131379;1298;22562;-84
2023/11/26 05:59:23;;;;;;;15.70;11.50;;;;;;;-1.68;95.28;99427.14;131442;1298;22584;-83
2023/11/26 06:02:24;;;;;;;16.40;11.80;;;;;;;-1.69;95.44;99428.88;131321;1295;23335;-85
2023/11/26 06:05:25;;;;;;;17.00;11.40;;;;;;;-1.69;95.37;99430.96;131417;1298;22550;-79
2023/11/26 06:08:25;;;;;;;12.40;8.40;;;;;;;-1.70;95.30;99430.86;131286;1288;23519;-84
2023/11/26 06:11:26;;;;;;;14.80;8.80;;;;;;;-1.73;95.05;99439.94;131541;1299;22589;-82
2023/11/26 06:14:27;;;;;;;9.10;5.70;;;;;;;-1.76;94.38;99441.38;131434;1295;22591;-84
2023/11/26 06:17:27;;;;;;;8.70;6.70;;;;;;;-1.81;93.81;99444.29;131227;1285;22924;-82
2023/11/26 06:20:28;;;;;;;8.00;6.10;;;;;;;-1.85;93.62;99449.22;131378;1297;22585;-83
2023/11/26 06:23:29;;;;;;;11.50;7.20;;;;;;;-1.87;93.88;99459.80;131555;1298;23354;-83
2023/11/26 06:26:30;;;;;;;10.70;7.00;;;;;;;-1.91;93.53;99464.36;131182;1298;22946;-82
2023/11/26 06:29:31;;;;;;;;;;;;;;;-1.94;93.62;99467.20;131225;1288;22548;-81
2023/11/26 06:32:31;;;;;;;8.80;6.10;;;;;;;-1.98;93.47;99470.75;131533;1298;22618;-84
2023/11/26 06:35:32;;;;;;;11.30;6.60;;;;;;;-2.02;93.37;99476.77;131312;1288;22566;-84
2023/11/26 06:38:35;;;;;;;9.90;6.30;;;;;;;-2.06;93.54;99473.04;131433;1295;24250;-80
2023/11/26 06:41:38;;;;;;;12.00;7.30;;;;;;;-2.09;93.47;99475.31;131539;1289;24267;-83
2023/11/26 06:44:39;;;;;;;9.70;6.80;;;;;;;-2.11;93.51;99477.00;131385;1298;22589;-81
2023/11/26 06:47:40;;;;;;;9.50;7.80;;;;;;;-2.12;93.74;99482.45;131474;1295;24474;-85
2023/11/26 06:50:40;;;;;;;10.90;7.10;;;;;;;-2.12;93.76;99489.55;131876;1297;22582;-84
2023/11/26 06:53:41;;;;;;;11.30;6.50;;;;;;;-2.13;93.62;99491.55;131512;1289;22560;-82
2023/11/26 06:56:41;;;;;;;8.20;6.20;;;;;;;-2.13;93.50;99501.05;131462;1298;22628;-84
2023/11/26 06:59:42;;;;;;;7.60;6.00;;;;;;;-2.11;93.29;99502.64;131252;1289;22579;-83
2023/11/26 07:02:43;;;;;;;8.90;4.90;;;;;;;-2.09;93.16;99505.42;131299;1295;22559;-81
2023/11/26 07:05:43;;;;;;;6.40;5.20;;;;;;;-2.07;93.45;99508.59;131466;1298;22597;-81
2023/11/26 07:08:44;;;;;;;7.80;5.20;;;;;;;-2.02;93.48;99516.96;131403;1295;22571;-83
2023/11/26 07:11:45;;;;;;;7.00;4.20;;;;;;;-1.96;93.47;99523.00;131481;1298;22571;-82
2023/11/26 07:14:45;;;;;;;8.00;4.50;;;;;;;-1.92;93.42;99527.06;131424;1298;22773;-84
2023/11/26 07:17:46;;;;;;;6.10;4.80;;;;;;;-1.89;93.06;99529.93;131543;1290;23444;-84
2023/11/26 07:20:46;;;;;;;6.80;4.50;;;;;;;-1.86;93.13;99536.85;131388;1295;22707;-81
2023/11/26 07:23:47;;;;;;;9.80;5.10;;;;;;;-1.83;93.35;99541.47;131404;1295;23244;-83
2023/11/26 07:26:48;;;;;;;9.80;5.70;;;;;;;-1.78;93.53;99544.88;131513;1289;25166;-82
2023/11/26 07:29:49;;;;;;;6.80;4.90;;;;;;;-1.74;93.29;99549.77;131521;1288;22640;-83
2023/11/26 07:47:06;;;;;;;;;;;;;;;;;;;;;
2023/11/26 08:13:36;;;;;;;9.50;6.00;;;;;;;-1.20;91.57;99608.94;127145;1334;23129;-80
2023/11/26 08:17:50;;;;;;;8.60;6.40;;;;;;;-1.24;91.56;99612.88;127267;1326;22638;-81
2023/11/26 08:22:18;;;;;;;;;;;;;;;;;;;;;
2023/11/26 08:25:28;;;;;;;6.80;5.10;;;;;;;-1.25;91.28;99621.45;128318;1315;22608;-83
2023/11/26 08:28:43;;;;;;;9.00;5.90;;;;;;;-1.28;91.19;99622.66;129914;1300;22685;-79
2023/11/26 08:31:55;;;;;;;10.00;6.60;;;;;;;-1.28;91.07;99628.56;130607;1299;22649;-81
2023/11/26 08:35:06;;;;;;;11.20;6.70;;;;;;;-1.23;91.37;99631.69;131186;1297;22608;-81
2023/11/26 08:38:12;;;;;;;9.90;6.50;;;;;;;-1.10;91.38;99629.98;130984;1291;25408;-82
2023/11/26 08:41:25;;;;;;;8.50;5.80;;;;;;;-1.04;91.27;99640.29;130938;1298;22649;-81
2023/11/26 08:45:48;;;;;;;10.10;6.50;;;;;;;-1.05;90.78;99644.20;130949;1298;22707;-84
2023/11/26 08:49:02;;;;;;;8.50;5.70;;;;;;;-1.05;90.64;99642.10;130188;1306;23102;-81
2023/11/26 08:52:05;;;;;;;7.00;4.40;;;;;;;-1.03;90.28;99643.91;130961;1298;22567;-82
2023/11/26 08:55:15;;;;;;;7.50;5.10;;;;;;;-1.05;90.15;99643.13;131041;1300;22559;-81
2023/11/26 08:58:45;;;;;;;10.30;6.00;;;;;;;-0.94;90.11;99647.13;131069;1298;25277;-80
2023/11/26 09:02:04;;;;;;;10.00;6.00;;;;;;;-0.69;89.46;99648.84;130829;1291;22608;-81
2023/11/26 09:05:24;;;;;;;9.80;5.80;;;;;;;-0.59;88.64;99644.83;131180;1291;23360;-80
2023/11/26 09:12:30;;;;;;;7.40;5.00;;;;;;;-0.57;88.33;99653.73;131060;1299;24917;-81
2023/11/26 09:15:47;;;;;;;;;;;;;;;;;;;;;
2023/11/26 09:32:19;;;;;;;8.20;4.50;;;;;;;-0.42;87.71;99660.16;130679;1297;24265;-80
2023/11/26 09:35:27;;;;;;;8.10;4.70;;;;;;;0.05;88.11;99662.21;130295;1296;22640;-81
2023/11/26 09:39:10;;;;;;;8.00;5.00;;;;;;;0.57;87.11;99661.71;130324;1304;25500;-80
2023/11/26 09:42:34;;;;;;;5.90;4.20;;;;;;;0.91;85.81;99665.63;129771;1303;22610;-81
2023/11/26 09:45:47;;;;;;;8.50;4.30;;;;;;;0.96;84.05;99662.08;129835;1298;22625;-80
2023/11/26 09:48:54;;;;;;;8.00;4.50;;;;;;;0.70;83.20;99660.08;130184;1303;22607;-80
2023/11/26 09:52:19;;;;;;;5.40;4.70;;;;;;;0.45;83.16;99661.59;130628;1304;23099;-81
2023/11/26 09:55:48;;;;;;;7.00;4.00;;;;;;;0.19;83.45;99665.21;130952;1295;22558;-82
2023/11/26 09:59:18;;;;;;;8.60;4.90;;;;;;;0.03;83.37;99668.64;131039;1292;25284;-81
2023/11/26 10:38:43;;;;;;;7.30;4.70;;;;;;;0.41;84.40;99639.60;127041;1312;23054;-82
2023/11/26 10:41:50;;;;;;;8.10;4.50;;;;;;;0.72;84.07;99638.63;129837;1304;25281;-80
2023/11/26 10:44:53;;;;;;;7.90;4.50;;;;;;;0.94;83.36;99639.95;131345;1300;25291;-80
2023/11/26 10:47:56;;;;;;;6.40;3.40;;;;;;;1.03;83.16;99638.54;130639;1289;24337;-80
2023/11/26 10:51:06;;;;;;;5.70;3.60;;;;;;;0.93;81.73;99641.63;130828;1291;24398;-80
2023/11/26 10:54:17;;;;;;;4.20;3.30;;;;;;;0.90;81.36;99639.17;131558;1290;22587;-80
2023/11/26 10:57:32;;;;;;;5.30;3.20;;;;;;;1.02;81.65;99634.98;131509;1292;22587;-79
2023/11/26 11:00:33;;;;;;;6.20;3.00;;;;;;;0.95;80.69;99638.13;131732;1298;25438;-79
2023/11/26 11:03:34;;;;;;;9.40;3.90;;;;;;;0.80;80.16;99636.49;131623;1289;22580;-80
2023/11/26 11:06:35;;;;;;;6.70;3.60;;;;;;;0.60;80.02;99642.69;131727;1289;22684;-81
2023/11/26 11:10:17;;;;;;;5.60;3.40;;;;;;;0.42;79.63;99647.86;131065;1289;22621;-79
2023/11/26 11:13:20;;;;;;;7.70;4.10;;;;;;;0.32;80.30;99651.00;131569;1293;22556;-81
2023/11/26 11:16:21;;;;;;;4.70;3.10;;;;;;;0.26;79.84;99646.95;131412;1298;22726;-80
2023/11/26 11:19:55;;;;;;;3.80;2.50;;;;;;;0.17;79.32;99647.73;131610;1289;22582;-82
2023/11/26 11:22:56;;;;;;;4.70;2.10;;;;;;;0.06;79.20;99651.72;131676;1289;22910;-81
2023/11/26 11:25:56;;;;;;;4.60;3.00;;;;;;;-0.03;78.92;99654.27;131780;1288;22724;-82
2023/11/26 11:29:00;;;;;;;7.90;3.60;;;;;;;-0.07;79.82;99657.33;131422;1291;22619;-79
2023/11/26 11:32:01;;;;;;;7.50;3.10;;;;;;;-0.15;79.73;99661.77;131507;1294;22569;-81
2023/11/26 11:35:41;;;;;;;3.70;3.00;;;;;;;-0.23;79.92;99665.60;131657;1292;22634;-80
2023/11/26 11:39:04;;;;;;;8.60;2.70;;;;;;;-0.23;80.25;99664.55;131723;1293;22616;-79
2023/11/26 11:42:04;;;;;;;4.80;3.20;;;;;;;-0.19;79.96;99666.02;131670;1297;25465;-82
2023/11/26 11:45:37;;;;;;;8.80;5.40;;;;;;;-0.14;80.41;99666.71;131763;1298;25408;-81
2023/11/26 11:48:38;;;;;;;9.90;4.90;;;;;;;0.06;80.33;99669.25;131304;1289;22598;-79
2023/11/26 11:51:41;;;;;;;7.00;3.50;;;;;;;0.12;79.87;99675.27;131494;1291;24225;-79
2023/11/26 11:54:54;;;;;;;10.50;5.50;;;;;;;0.03;79.21;99682.89;131686;1294;22723;-81
2023/11/26 11:57:55;;;;;;;7.20;4.10;;;;;;;0.02;79.95;99676.90;131449;1289;22583;-80
2023/11/26 12:00:57;;;;;;;8.40;4.10;;;;;;;0.03;79.54;99677.65;131448;1297;22595;-80
2023/11/26 12:04:01;;;;;;;7.80;3.40;;;;;;;0.00;79.71;99679.95;131688;1289;23847;-81
2023/11/26 12:07:01;;;;;;;7.00;2.70;;;;;;;-0.06;80.01;99679.69;131701;1293;22640;-81
2023/11/26 12:10:03;;;;;;;4.80;2.70;;;;;;;-0.13;80.10;99675.48;131668;1298;22558;-82
2023/11/26 12:13:08;;;;;;;4.40;2.70;;;;;;;-0.10;80.22;99675.63;131612;1292;22556;-82
2023/11/26 12:16:10;;;;;;;5.20;2.60;;;;;;;-0.03;80.16;99676.33;131885;1288;23934;-80
2023/11/26 12:19:10;;;;;;;4.60;2.70;;;;;;;0.06;80.20;99679.23;131550;1289;22584;-82
2023/11/26 12:22:12;;;;;;;7.90;3.80;;;;;;;0.02;79.52;99681.35;131551;1297;22586;-81
2023/11/26 12:25:14;;;;;;;6.80;4.10;;;;;;;-0.06;79.21;99685.92;131421;1290;22578;-81
2023/11/26 12:28:16;;;;;;;6.50;3.50;;;;;;;-0.14;79.90;99684.06;131723;1297;22559;-81
2023/11/26 12:31:16;;;;;;;6.20;4.40;;;;;;;-0.06;80.72;99682.80;131687;1293;23004;-79
2023/11/26 12:34:17;;;;;;;8.30;2.90;;;;;;;0.09;80.92;99679.00;131564;1297;22573;-79
2023/11/26 12:37:17;;;;;;;6.40;3.80;;;;;;;0.16;80.66;99680.52;131511;1288;23093;-80
2023/11/26 12:40:18;;;;;;;6.90;3.60;;;;;;;0.25;80.30;99678.99;131773;1295;22646;-79
2023/11/26 12:43:20;;;;;;;6.10;3.50;;;;;;;0.28;79.76;99681.96;131603;1298;23915;-80
2023/11/26 12:46:24;;;;;;;4.30;2.70;;;;;;;0.28;78.62;99685.25;131456;1285;25278;-80
2023/11/26 12:49:25;;;;;;;4.20;3.00;;;;;;;0.26;78.13;99692.54;131667;1291;22562;-80
2023/11/26 12:52:33;;;;;;;4.80;2.80;;;;;;;0.33;78.63;99689.91;131703;1298;22570;-80
2023/11/26 12:55:34;;;;;;;4.70;3.30;;;;;;;0.30;77.16;99686.83;131724;1298;23066;-81
2023/11/26 12:58:35;;;;;;;6.20;3.60;;;;;;;0.19;77.17;99690.42;131442;1288;24019;-79
2023/11/26 13:01:36;;;;;;;4.20;2.70;;;;;;;0.03;76.65;99696.58;131056;1291;22548;-81
2023/11/26 13:04:36;;;;;;;6.00;3.50;;;;;;;-0.17;76.96;99703.38;130907;1288;24934;-77
2023/11/26 13:07:38;;;;;;;5.40;3.50;;;;;;;-0.39;77.80;99706.21;131011;1298;22566;-78
2023/11/26 13:10:46;;;;;;;6.10;3.30;;;;;;;-0.55;78.49;99709.38;130674;1289;22605;-80
2023/11/26 13:13:46;;;;;;;11.20;4.70;;;;;;;-0.62;79.24;99708.13;130810;1285;24072;-79
2023/11/26 13:16:49;;;;;;;16.20;6.90;;;;;;;-0.64;79.58;99708.59;131764;1289;24293;-80
2023/11/26 13:19:51;;;;;;;12.30;5.60;;;;;;;-0.65;79.87;99708.36;132719;1289;22618;-80
2023/11/26 13:22:55;;;;;;;9.20;5.20;;;;;;;-0.65;80.14;99711.31;131818;1288;25380;-79
2023/11/26 13:25:58;;;;;;;7.80;4.30;;;;;;;-0.73;79.84;99717.58;131643;1294;22766;-79
2023/11/26 13:28:59;;;;;;;6.50;3.80;;;;;;;-0.86;79.96;99726.95;131601;1294;23171;-82
2023/11/26 13:32:00;;;;;;;8.60;4.30;;;;;;;-0.93;80.22;99726.02;131801;1297;22699;-81
2023/11/26 13:35:00;;;;;;;4.70;3.20;;;;;;;-0.98;80.08;99725.33;131725;1285;22578;-82
2023/11/26 13:38:01;;;;;;;4.60;3.30;;;;;;;-1.00;79.76;99723.03;131374;1298;22605;-82
2023/11/26 13:41:01;;;;;;;4.60;2.70;;;;;;;-1.03;79.11;99719.23;131676;1291;22589;-82
2023/11/26 13:44:02;;;;;;;12.10;5.80;;;;;;;-1.07;79.43;99715.16;131651;1297;23380;-82
2023/11/26 13:47:03;;;;;;;12.30;4.90;;;;;;;-1.10;79.79;99716.54;131647;1298;26464;-85
2023/11/26 13:50:05;;;;;;;13.80;5.00;;;;;;;-1.11;80.04;99718.54;131347;1298;22668;-85
2023/11/26 13:53:06;;;;;;;4.70;3.00;;;;;;;-1.12;80.04;99712.73;131382;1291;22717;-82
2023/11/26 13:56:08;;;;;;;6.40;3.70;;;;;;;-1.14;80.23;99714.38;131722;1295;23131;-83
2023/11/26 13:59:08;;;;;;;9.10;4.80;;;;;;;-1.17;80.11;99719.83;131723;1295;24269;-82
2023/11/26 14:02:09;;;;;;;7.00;3.80;;;;;;;-1.19;80.36;99722.06;131673;1298;23364;-84
2023/11/26 14:05:11;;;;;;;9.40;5.00;;;;;;;-1.23;80.01;99724.23;131746;1293;24329;-85
2023/11/26 14:08:12;;;;;;;9.30;4.70;;;;;;;-1.27;80.15;99721.90;131420;1298;25272;-82
2023/11/26 14:11:13;;;;;;;7.40;4.40;;;;;;;-1.30;80.56;99717.04;131762;1295;22769;-82
2023/11/26 14:14:14;;;;;;;8.10;4.30;;;;;;;-1.30;80.62;99717.23;131742;1298;173756;-86
2023/11/26 14:17:14;;;;;;;9.90;5.10;;;;;;;-1.31;80.81;99715.77;131993;1298;24262;-82
2023/11/26 14:20:17;;;;;;;14.10;6.50;;;;;;;-1.31;81.01;99718.33;131544;1294;22573;-81
2023/11/26 14:23:18;;;;;;;6.60;4.40;;;;;;;-1.33;80.92;99721.05;131639;1299;22640;-85
2023/11/26 14:26:19;;;;;;;7.20;4.60;;;;;;;-1.37;80.93;99721.78;131959;1294;25128;-84
2023/11/26 14:29:20;;;;;;;6.70;3.60;;;;;;;-1.40;81.22;99712.67;131891;1297;25397;-83
2023/11/26 14:32:20;;;;;;;8.30;4.80;;;;;;;-1.41;81.52;99711.30;131513;1298;23180;-84
2023/11/26 14:35:21;;;;;;;8.80;5.10;;;;;;;-1.40;81.56;99711.11;131599;1292;22686;-82
2023/11/26 14:38:21;;;;;;;12.30;5.90;;;;;;;-1.44;81.52;99711.54;131508;1295;22559;-80
2023/11/26 14:41:22;;;;;;;12.50;6.80;;;;;;;-1.46;81.38;99713.55;131444;1293;22559;-81
2023/11/26 14:44:23;;;;;;;15.40;7.00;;;;;;;-1.47;81.45;99722.16;131129;1298;22559;-83
2023/11/26 14:47:23;;;;;;;15.60;8.70;;;;;;;-1.48;81.47;99728.59;131475;1295;22591;-84
2023/11/26 14:50:24;;;;;;;24.40;11.20;;;;;;;-1.48;81.71;99728.27;131411;1297;22756;-83
2023/11/26 14:53:28;;;;;;;18.80;9.20;;;;;;;-1.46;81.68;99726.05;131048;1292;25274;-83
2023/11/26 14:56:29;;;;;;;16.20;8.10;;;;;;;-1.46;81.89;99725.34;131484;1298;22591;-83
2023/11/26 14:59:32;;;;;;;15.70;7.80;;;;;;;-1.46;81.89;99720.34;131191;1298;24412;-82
2023/11/26 15:02:33;;;;;;;18.00;8.70;;;;;;;-1.44;81.66;99714.64;131578;1298;22556;-80
2023/11/26 15:05:33;;;;;;;16.40;8.40;;;;;;;-1.42;82.02;99714.86;131879;1298;22589;-82
2023/11/26 15:08:34;;;;;;;13.20;6.70;;;;;;;-1.43;82.24;99711.44;131696;1289;25276;-80
2023/11/26 15:11:38;;;;;;;12.80;6.10;;;;;;;-1.53;81.18;99715.56;131737;1298;24423;-82
2023/11/26 15:14:40;;;;;;;10.70;5.20;;;;;;;-1.61;80.61;99717.80;131368;1288;22590;-81
2023/11/26 15:17:40;;;;;;;13.40;6.10;;;;;;;-1.68;80.06;99718.14;131713;1298;24638;-84
2023/11/26 15:20:41;;;;;;;20.50;9.10;;;;;;;-1.77;80.22;99717.47;131365;1283;22555;-81
2023/11/26 15:23:41;;;;;;;21.60;9.80;;;;;;;-1.85;79.96;99721.08;131391;1298;22615;-82
2023/11/26 15:26:43;;;;;;;14.70;7.10;;;;;;;-1.90;79.82;99720.20;131318;1297;22552;-82
2023/11/26 15:29:44;;;;;;;15.40;7.50;;;;;;;-1.94;80.09;99716.85;131616;1298;22619;-84
2023/11/26 15:32:46;;;;;;;10.90;5.40;;;;;;;-1.98;79.84;99716.70;131278;1298;24074;-83
2023/11/26 15:35:47;;;;;;;9.80;5.90;;;;;;;-2.02;79.74;99711.08;131607;1298;22567;-82
2023/11/26 15:38:51;;;;;;;10.60;5.80;;;;;;;-2.07;79.72;99710.52;131725;1295;25265;-82
2023/11/26 15:41:52;;;;;;;14.80;7.20;;;;;;;-2.12;79.56;99715.55;131606;1289;22576;-84
2023/11/26 15:44:52;;;;;;;18.10;7.30;;;;;;;-2.16;79.72;99716.33;131622;1297;22565;-83
2023/11/26 15:47:53;;;;;;;15.50;7.90;;;;;;;-2.19;79.91;99714.07;131316;1290;25358;-82
2023/11/26 15:50:56;;;;;;;18.90;7.30;;;;;;;-2.22;79.59;99716.37;131626;1289;22612;-85